Time;durP1;ratioP1;P1;durP2;ratioP2;P2;SDS_P1;SDS_P2;PMS_P1;PMS_P2;Temp;Humidity;BMP_temperature;BMP_pressure;BME280_temperature;BME280_humidity;BME280_pressure;Samples;Min_cycle;Max_cycle;Signal;HPM_P1;HPM_P2
2022/07/25 00:02:25;;;;;;;;;;;24.70;90.90;;;;;;4955531;29;19914;-73
2022/07/25 00:04:51;;;;;;;;;;;24.70;91.30;;;;;;4954187;28;19914;-73
2022/07/25 00:07:16;;;;;;;;;;;24.40;92.10;;;;;;4955931;28;19910;-72
2022/07/25 00:09:42;;;;;;;;;;;24.40;92.40;;;;;;4953975;29;19917;-73
2022/07/25 00:12:08;;;;;;;;;;;24.40;92.50;;;;;;4955049;28;20331;-73
2022/07/25 00:14:33;;;;;;;;;;;24.50;92.00;;;;;;4955327;28;20001;-73
2022/07/25 00:16:59;;;;;;;;;;;24.50;92.20;;;;;;4954378;29;19910;-73
2022/07/25 00:19:24;;;;;;;;;;;24.40;92.40;;;;;;4955013;29;19921;-73
2022/07/25 00:21:50;;;;;;;;;;;24.40;92.50;;;;;;4955258;29;20286;-73
2022/07/25 00:24:16;;;;;;;;;;;24.20;92.90;;;;;;4954458;28;20287;-73
2022/07/25 00:26:41;;;;;;;;;;;24.00;93.80;;;;;;4954225;29;20057;-73
2022/07/25 00:29:07;;;;;;;;;;;24.00;94.10;;;;;;4955059;29;19917;-73
2022/07/25 00:31:33;;;;;;;;;;;23.90;94.40;;;;;;4954824;28;19937;-73
2022/07/25 00:33:58;;;;;;;;;;;23.70;95.10;;;;;;4954714;28;19911;-73
2022/07/25 00:36:24;;;;;;;;;;;23.70;95.40;;;;;;4954960;29;19915;-73
2022/07/25 00:38:49;;;;;;;;;;;23.80;95.50;;;;;;4954804;29;19941;-73
2022/07/25 00:41:15;;;;;;;;;;;23.90;94.90;;;;;;4953439;29;19910;-73
2022/07/25 00:43:43;;;;;;;;;;;24.10;94.40;;;;;;4954410;28;19921;-73
2022/07/25 00:46:14;;;;;;;;;;;24.20;93.90;;;;;;4954972;28;19910;-73
2022/07/25 00:48:40;;;;;;;;;;;24.30;93.50;;;;;;4953328;29;19922;-73
2022/07/25 00:51:07;;;;;;;;;;;24.50;93.20;;;;;;4954759;29;19914;-73
2022/07/25 00:53:33;;;;;;;;;;;24.40;93.00;;;;;;4954143;28;19916;-73
2022/07/25 00:55:59;;;;;;;;;;;24.00;94.50;;;;;;4953260;28;19914;-73
2022/07/25 00:58:25;;;;;;;;;;;23.70;95.30;;;;;;4953658;28;19914;-73
2022/07/25 01:00:50;;;;;;;;;;;23.70;95.60;;;;;;4954562;29;19965;-73
2022/07/25 01:03:16;;;;;;;;;;;23.50;96.10;;;;;;4953824;28;19981;-72
2022/07/25 01:05:42;;;;;;;;;;;23.40;97.10;;;;;;4954402;28;22853;-73
2022/07/25 01:08:08;;;;;;;;;;;23.50;96.80;;;;;;4960014;28;19949;-73
2022/07/25 01:10:34;;;;;;;;;;;23.20;98.40;;;;;;4960553;28;19966;-72
2022/07/25 01:13:00;;;;;;;;;;;23.00;99.60;;;;;;4972165;28;19940;-73
2022/07/25 01:15:26;;;;;;;;;;;22.80;99.90;;;;;;4966393;28;20287;-72
2022/07/25 01:17:51;;;;;;;;;;;22.70;99.90;;;;;;4954257;28;19962;-72
2022/07/25 01:20:22;;;;;;;;;;;22.80;99.90;;;;;;4953940;28;19910;-72
2022/07/25 01:22:48;;;;;;;;;;;22.80;99.90;;;;;;4953470;28;19918;-72
2022/07/25 01:25:14;;;;;;;;;;;22.80;99.90;;;;;;4971861;28;19945;-72
2022/07/25 01:27:40;;;;;;;;;;;22.70;99.90;;;;;;4973563;28;19921;-72
2022/07/25 01:30:08;;;;;;;;;;;22.60;99.90;;;;;;4972872;28;20001;-72
2022/07/25 01:32:34;;;;;;;;;;;22.30;99.90;;;;;;4972632;28;20694;-72
2022/07/25 01:34:59;;;;;;;;;;;22.40;99.90;;;;;;4973147;28;19918;-72
2022/07/25 01:37:25;;;;;;;;;;;22.40;99.90;;;;;;4955905;28;19910;-72
2022/07/25 01:39:51;;;;;;;;;;;22.30;99.90;;;;;;4972227;28;19937;-72
2022/07/25 01:42:16;;;;;;;;;;;22.30;99.90;;;;;;4955562;28;19910;-73
2022/07/25 01:44:42;;;;;;;;;;;22.20;99.90;;;;;;4954272;28;20358;-72
2022/07/25 01:47:08;;;;;;;;;;;22.30;99.90;;;;;;4953709;28;20286;-72
2022/07/25 01:49:33;;;;;;;;;;;22.30;99.90;;;;;;4953847;28;19945;-72
2022/07/25 01:51:59;;;;;;;;;;;22.40;99.90;;;;;;4953521;28;20339;-72
2022/07/25 01:54:25;;;;;;;;;;;22.40;99.90;;;;;;4953155;28;20378;-72
2022/07/25 01:56:51;;;;;;;;;;;22.40;99.90;;;;;;4952456;29;19964;-72
2022/07/25 01:59:16;;;;;;;;;;;22.40;99.90;;;;;;4953615;28;19910;-73
2022/07/25 02:01:42;;;;;;;;;;;22.30;99.90;;;;;;4953804;28;20379;-72
2022/07/25 02:04:08;;;;;;;;;;;22.30;99.90;;;;;;4983989;28;19910;-72
2022/07/25 02:06:34;;;;;;;;;;;22.40;99.90;;;;;;4953094;28;20330;-73
2022/07/25 02:09:01;;;;;;;;;;;22.40;99.90;;;;;;4984002;28;19938;-73
2022/07/25 02:11:26;;;;;;;;;;;22.40;99.90;;;;;;4953865;28;19911;-73
2022/07/25 02:13:52;;;;;;;;;;;22.60;99.90;;;;;;4953286;28;19965;-73
2022/07/25 02:16:17;;;;;;;;;;;22.50;99.90;;;;;;4968434;28;20025;-73
2022/07/25 02:18:44;;;;;;;;;;;22.60;99.90;;;;;;4972471;28;20255;-73
2022/07/25 02:21:10;;;;;;;;;;;22.60;99.90;;;;;;4970913;28;19910;-73
2022/07/25 02:23:36;;;;;;;;;;;22.50;99.90;;;;;;4969880;28;19993;-73
2022/07/25 02:26:02;;;;;;;;;;;22.50;99.90;;;;;;4971324;28;19996;-73
2022/07/25 02:28:28;;;;;;;;;;;22.50;99.90;;;;;;4971215;28;19914;-73
2022/07/25 02:30:54;;;;;;;;;;;22.50;99.90;;;;;;4972387;28;19960;-73
2022/07/25 02:33:19;;;;;;;;;;;22.50;99.90;;;;;;4972060;28;19910;-73
2022/07/25 02:35:45;;;;;;;;;;;22.60;99.90;;;;;;4972396;28;19918;-73
2022/07/25 02:38:17;;;;;;;;;;;22.70;99.90;;;;;;4972536;28;19917;-73
2022/07/25 02:40:43;;;;;;;;;;;22.60;99.90;;;;;;4972363;28;19937;-73
2022/07/25 02:43:08;;;;;;;;;;;22.60;99.90;;;;;;4972150;28;20465;-73
2022/07/25 02:45:34;;;;;;;;;;;22.60;99.90;;;;;;4972628;28;19920;-73
2022/07/25 02:48:00;;;;;;;;;;;22.30;99.90;;;;;;4972178;28;19910;-73
2022/07/25 02:50:25;;;;;;;;;;;22.30;99.90;;;;;;4971870;28;19910;-73
2022/07/25 02:52:51;;;;;;;;;;;22.20;99.90;;;;;;4970248;28;19921;-73
2022/07/25 02:55:17;;;;;;;;;;;22.30;99.90;;;;;;4972217;28;19965;-73
2022/07/25 02:57:42;;;;;;;;;;;22.40;99.90;;;;;;4972676;28;19917;-73
2022/07/25 03:00:09;;;;;;;;;;;22.40;99.90;;;;;;4971915;28;19917;-73
2022/07/25 03:02:35;;;;;;;;;;;22.40;99.90;;;;;;4970925;28;19918;-73
2022/07/25 03:05:01;;;;;;;;;;;22.50;99.90;;;;;;4971186;28;19917;-73
2022/07/25 03:07:27;;;;;;;;;;;22.40;99.90;;;;;;4971043;28;19910;-73
2022/07/25 03:09:53;;;;;;;;;;;22.50;99.90;;;;;;4971780;28;19980;-73
2022/07/25 03:12:18;;;;;;;;;;;22.40;99.90;;;;;;4972044;28;19972;-73
2022/07/25 03:14:44;;;;;;;;;;;22.20;99.90;;;;;;4968442;28;19914;-75
2022/07/25 03:17:09;;;;;;;;;;;22.20;99.90;;;;;;4953358;28;20358;-73
2022/07/25 03:19:35;;;;;;;;;;;22.20;99.90;;;;;;4954262;28;19910;-73
2022/07/25 03:22:00;;;;;;;;;;;22.20;99.90;;;;;;4955721;28;19914;-73
2022/07/25 03:24:26;;;;;;;;;;;22.20;99.90;;;;;;4956027;28;19968;-73
2022/07/25 03:26:52;;;;;;;;;;;22.00;99.90;;;;;;4955114;28;19956;-73
2022/07/25 03:29:17;;;;;;;;;;;22.10;99.90;;;;;;4955982;28;19910;-73
2022/07/25 03:31:43;;;;;;;;;;;22.10;99.90;;;;;;4955348;28;19949;-73
2022/07/25 03:34:08;;;;;;;;;;;22.30;99.90;;;;;;4955964;28;20307;-73
2022/07/25 03:36:34;;;;;;;;;;;22.30;99.90;;;;;;4954632;29;20080;-73
2022/07/25 03:39:00;;;;;;;;;;;22.20;99.90;;;;;;4955881;28;20006;-73
2022/07/25 03:41:26;;;;;;;;;;;22.10;99.90;;;;;;4956222;28;20037;-76
2022/07/25 03:43:51;;;;;;;;;;;21.90;99.90;;;;;;4955534;28;19914;-75
2022/07/25 03:46:17;;;;;;;;;;;21.80;99.90;;;;;;4966468;28;19922;-75
2022/07/25 03:48:42;;;;;;;;;;;21.80;99.90;;;;;;4963175;28;19910;-74
2022/07/25 03:51:08;;;;;;;;;;;21.80;99.90;;;;;;4970753;28;19910;-76
2022/07/25 03:54:00;;;;;;;;;;;21.80;99.90;;;;;;4952248;28;19914;-74
2022/07/25 03:56:20;;;;;;;;;;;21.70;99.90;;;;;;4954065;29;20036;-74
2022/07/25 03:58:46;;;;;;;;;;;21.70;99.90;;;;;;4912471;28;20317;-76
2022/07/25 04:01:11;;;;;;;;;;;21.60;99.90;;;;;;4977927;28;19965;-75
2022/07/25 04:03:37;;;;;;;;;;;21.60;99.90;;;;;;4974261;28;19918;-74
2022/07/25 04:06:03;;;;;;;;;;;21.50;99.90;;;;;;4974630;28;20009;-74
2022/07/25 04:08:29;;;;;;;;;;;21.60;99.90;;;;;;4974470;28;19920;-73
2022/07/25 04:10:54;;;;;;;;;;;21.50;99.90;;;;;;4974273;28;20314;-75
2022/07/25 04:13:20;;;;;;;;;;;21.50;99.90;;;;;;4974354;28;20005;-75
2022/07/25 04:15:45;;;;;;;;;;;21.50;99.90;;;;;;4962164;28;19937;-75
2022/07/25 04:18:11;;;;;;;;;;;21.60;99.90;;;;;;4953400;29;20289;-75
2022/07/25 04:20:37;;;;;;;;;;;21.50;99.90;;;;;;4954665;29;20287;-75
2022/07/25 04:23:02;;;;;;;;;;;21.50;99.90;;;;;;4954693;28;20366;-76
2022/07/25 04:25:28;;;;;;;;;;;21.50;99.90;;;;;;4955448;29;19910;-76
2022/07/25 04:27:55;;;;;;;;;;;21.70;99.90;;;;;;4955031;29;19910;-76
2022/07/25 04:30:20;;;;;;;;;;;21.80;99.90;;;;;;4952933;28;19910;-75
2022/07/25 04:32:46;;;;;;;;;;;21.90;99.90;;;;;;4954317;28;19950;-75
2022/07/25 04:35:12;;;;;;;;;;;21.80;99.90;;;;;;4951905;28;19925;-74
2022/07/25 04:37:37;;;;;;;;;;;21.90;99.90;;;;;;4965127;28;19917;-75
2022/07/25 04:40:04;;;;;;;;;;;21.90;99.90;;;;;;4962690;28;19961;-74
2022/07/25 04:42:30;;;;;;;;;;;21.90;99.90;;;;;;4962789;28;20004;-74
2022/07/25 04:44:56;;;;;;;;;;;21.80;99.90;;;;;;4985636;28;19993;-75
2022/07/25 04:47:21;;;;;;;;;;;21.70;99.90;;;;;;4963362;28;19918;-74
2022/07/25 04:49:47;;;;;;;;;;;21.70;99.90;;;;;;4967523;28;20248;-74
2022/07/25 04:52:13;;;;;;;;;;;21.80;99.90;;;;;;4967735;28;19961;-74
2022/07/25 04:54:38;;;;;;;;;;;21.70;99.90;;;;;;4958918;28;19918;-73
2022/07/25 04:57:04;;;;;;;;;;;21.80;99.90;;;;;;4963362;28;20518;-73
2022/07/25 04:59:30;;;;;;;;;;;22.00;99.90;;;;;;4973066;28;20362;-73
2022/07/25 05:01:56;;;;;;;;;;;22.20;99.90;;;;;;4971228;28;19937;-74
2022/07/25 05:04:21;;;;;;;;;;;22.40;99.90;;;;;;4972762;28;20386;-80
2022/07/25 05:06:47;;;;;;;;;;;22.50;99.90;;;;;;4973688;28;19941;-74
2022/07/25 05:09:13;;;;;;;;;;;22.60;99.90;;;;;;4955639;28;19913;-75
2022/07/25 05:11:38;;;;;;;;;;;22.50;99.90;;;;;;4973433;28;19910;-76
2022/07/25 05:14:04;;;;;;;;;;;22.70;99.90;;;;;;4972740;28;19917;-75
2022/07/25 05:16:29;;;;;;;;;;;22.70;99.90;;;;;;4954681;28;19921;-74
2022/07/25 05:18:55;;;;;;;;;;;22.60;99.90;;;;;;4922940;28;19921;-75
2022/07/25 05:21:21;;;;;;;;;;;22.70;99.90;;;;;;4953724;28;20064;-72
2022/07/25 05:23:46;;;;;;;;;;;22.80;99.90;;;;;;4929889;28;20363;-72
2022/07/25 05:26:12;;;;;;;;;;;22.80;99.90;;;;;;4953538;29;19910;-72
2022/07/25 05:28:38;;;;;;;;;;;22.90;99.90;;;;;;4953045;29;19910;-72
2022/07/25 05:31:04;;;;;;;;;;;22.90;99.90;;;;;;4953300;29;19914;-73
2022/07/25 05:33:29;;;;;;;;;;;22.90;99.90;;;;;;4953216;28;19910;-73
2022/07/25 05:35:55;;;;;;;;;;;23.00;99.90;;;;;;4953672;29;19921;-72
2022/07/25 05:38:21;;;;;;;;;;;23.00;99.90;;;;;;4953741;29;20130;-72
2022/07/25 05:40:46;;;;;;;;;;;22.90;99.90;;;;;;4953029;28;19957;-72
2022/07/25 05:43:12;;;;;;;;;;;23.00;99.90;;;;;;4952279;28;20409;-72
2022/07/25 05:45:37;;;;;;;;;;;23.00;99.90;;;;;;4953056;28;19965;-72
2022/07/25 05:48:03;;;;;;;;;;;23.10;99.90;;;;;;4953295;29;20760;-72
2022/07/25 05:50:29;;;;;;;;;;;23.20;99.90;;;;;;4953139;28;19914;-72
2022/07/25 05:52:55;;;;;;;;;;;23.30;99.90;;;;;;4952864;28;19918;-71
2022/07/25 05:55:21;;;;;;;;;;;23.40;99.90;;;;;;4953360;29;19918;-72
2022/07/25 05:57:47;;;;;;;;;;;23.50;99.90;;;;;;4959658;28;19910;-72
2022/07/25 06:00:13;;;;;;;;;;;23.70;99.90;;;;;;4952879;29;19957;-72
2022/07/25 06:02:38;;;;;;;;;;;23.80;99.90;;;;;;4950425;29;19918;-72
2022/07/25 06:05:04;;;;;;;;;;;24.00;99.90;;;;;;4953682;28;20008;-71
2022/07/25 06:07:30;;;;;;;;;;;24.10;99.90;;;;;;4953676;28;19953;-71
2022/07/25 06:09:55;;;;;;;;;;;24.40;99.90;;;;;;4953175;28;19918;-70
2022/07/25 06:12:21;;;;;;;;;;;24.50;99.90;;;;;;4951857;28;19914;-69
2022/07/25 06:14:47;;;;;;;;;;;24.70;99.90;;;;;;4952881;28;19915;-69
2022/07/25 06:17:12;;;;;;;;;;;24.90;99.90;;;;;;4953144;29;19917;-70
2022/07/25 06:19:38;;;;;;;;;;;25.00;99.50;;;;;;4954849;28;20018;-69
2022/07/25 06:22:04;;;;;;;;;;;25.10;99.60;;;;;;4951630;29;20406;-69
2022/07/25 06:24:29;;;;;;;;;;;25.20;98.90;;;;;;4952902;28;19914;-70
2022/07/25 06:26:55;;;;;;;;;;;25.20;98.80;;;;;;4953167;29;19911;-68
2022/07/25 06:29:21;;;;;;;;;;;25.30;98.60;;;;;;4952470;29;20366;-68
2022/07/25 06:31:46;;;;;;;;;;;25.40;98.70;;;;;;4952989;29;19953;-72
2022/07/25 06:34:12;;;;;;;;;;;25.50;98.40;;;;;;4952793;28;19997;-71
2022/07/25 06:36:37;;;;;;;;;;;25.60;98.40;;;;;;4961436;28;20088;-70
2022/07/25 06:39:03;;;;;;;;;;;25.60;98.20;;;;;;4972274;28;20657;-71
2022/07/25 06:41:29;;;;;;;;;;;25.70;98.20;;;;;;4960486;28;20398;-70
2022/07/25 06:43:54;;;;;;;;;;;25.70;97.90;;;;;;4957237;28;19910;-70
2022/07/25 06:46:20;;;;;;;;;;;25.80;97.70;;;;;;4955302;28;20319;-69
2022/07/25 06:48:45;;;;;;;;;;;25.70;97.70;;;;;;4963231;28;20330;-70
2022/07/25 06:51:11;;;;;;;;;;;25.70;97.60;;;;;;4970974;28;20294;-70
2022/07/25 06:53:37;;;;;;;;;;;25.80;97.40;;;;;;4973539;28;19965;-69
2022/07/25 06:56:02;;;;;;;;;;;25.70;97.40;;;;;;4975784;28;20372;-70
2022/07/25 06:58:28;;;;;;;;;;;25.80;97.40;;;;;;4976034;28;19997;-70
2022/07/25 07:00:54;;;;;;;;;;;26.00;97.40;;;;;;4975244;28;19914;-70
2022/07/25 07:03:20;;;;;;;;;;;26.00;97.10;;;;;;4975594;28;19980;-70
2022/07/25 07:05:46;;;;;;;;;;;26.00;97.10;;;;;;4974992;28;19910;-70
2022/07/25 07:08:12;;;;;;;;;;;26.00;96.90;;;;;;4959534;28;19914;-70
2022/07/25 07:10:39;;;;;;;;;;;26.10;96.70;;;;;;4969271;28;20286;-70
2022/07/25 07:13:07;;;;;;;;;;;26.10;96.80;;;;;;4959416;28;20342;-70
2022/07/25 07:15:33;;;;;;;;;;;26.20;96.60;;;;;;4956275;28;20013;-69
2022/07/25 07:17:59;;;;;;;;;;;26.20;96.50;;;;;;4956135;29;20276;-70
2022/07/25 07:20:24;;;;;;;;;;;26.20;96.60;;;;;;4956075;29;19957;-73
2022/07/25 07:22:50;;;;;;;;;;;26.30;96.40;;;;;;4955657;28;19936;-76
2022/07/25 07:25:18;;;;;;;;;;;26.40;96.40;;;;;;4956006;29;19933;-72
2022/07/25 07:27:44;;;;;;;;;;;26.50;96.40;;;;;;4955971;29;19925;-72
2022/07/25 07:30:10;;;;;;;;;;;26.70;95.60;;;;;;4955542;28;19914;-72
2022/07/25 07:32:36;;;;;;;;;;;26.80;95.70;;;;;;4955527;28;19914;-72
2022/07/25 07:35:02;;;;;;;;;;;26.90;95.30;;;;;;4955696;29;20398;-73
2022/07/25 07:37:28;;;;;;;;;;;26.80;95.20;;;;;;4954543;29;19917;-72
2022/07/25 07:39:53;;;;;;;;;;;26.90;95.30;;;;;;4955413;28;20271;-72
2022/07/25 07:42:19;;;;;;;;;;;27.00;95.10;;;;;;4955277;28;19964;-72
2022/07/25 07:44:45;;;;;;;;;;;27.10;95.10;;;;;;4956032;28;19910;-72
2022/07/25 07:47:10;;;;;;;;;;;27.10;94.70;;;;;;4954236;29;20005;-72
2022/07/25 07:49:36;;;;;;;;;;;27.10;94.50;;;;;;4955747;29;19957;-72
2022/07/25 07:52:02;;;;;;;;;;;27.20;94.60;;;;;;4954279;28;19915;-72
2022/07/25 07:57:12;;;;;;;;;;;27.30;94.50;;;;;;4953957;28;19914;-71
2022/07/25 07:59:37;;;;;;;;;;;27.30;94.30;;;;;;4955677;28;20386;-72
2022/07/25 08:02:03;;;;;;;;;;;27.20;94.40;;;;;;4963069;28;19910;-71
2022/07/25 08:04:28;;;;;;;;;;;27.40;94.30;;;;;;4985683;28;19925;-72
2022/07/25 08:06:54;;;;;;;;;;;27.40;94.30;;;;;;4985821;28;19961;-72
2022/07/25 08:09:20;;;;;;;;;;;27.50;94.20;;;;;;4952557;29;20373;-70
2022/07/25 08:11:45;;;;;;;;;;;27.60;94.30;;;;;;4955393;29;20287;-69
2022/07/25 08:14:11;;;;;;;;;;;27.50;93.80;;;;;;4955048;28;20426;-69
2022/07/25 08:16:36;;;;;;;;;;;27.50;94.00;;;;;;4971872;28;19965;-70
2022/07/25 08:19:02;;;;;;;;;;;27.40;94.30;;;;;;4974282;28;19965;-70
2022/07/25 08:21:28;;;;;;;;;;;27.50;94.20;;;;;;4974626;28;19914;-69
2022/07/25 08:23:53;;;;;;;;;;;27.60;94.40;;;;;;4973911;28;20271;-69
2022/07/25 08:26:19;;;;;;;;;;;27.60;94.30;;;;;;4973839;28;19921;-69
2022/07/25 08:28:45;;;;;;;;;;;27.60;94.40;;;;;;4964423;28;19910;-68
2022/07/25 08:31:10;;;;;;;;;;;27.70;94.30;;;;;;4958575;28;19918;-67
2022/07/25 08:33:36;;;;;;;;;;;27.90;94.50;;;;;;4957226;28;20494;-68
2022/07/25 08:36:02;;;;;;;;;;;27.90;94.00;;;;;;4973856;28;19976;-68
2022/07/25 08:38:28;;;;;;;;;;;27.90;94.00;;;;;;4973952;28;20033;-68
2022/07/25 08:40:55;;;;;;;;;;;28.10;93.90;;;;;;4972257;28;20046;-68
2022/07/25 08:43:21;;;;;;;;;;;28.10;93.70;;;;;;4956792;28;19909;-67
2022/07/25 08:45:50;;;;;;;;;;;28.20;93.20;;;;;;4973729;28;19964;-68
2022/07/25 08:48:17;;;;;;;;;;;28.40;93.30;;;;;;4974097;28;20465;-68
2022/07/25 08:50:43;;;;;;;;;;;28.40;92.90;;;;;;4973625;28;20048;-68
2022/07/25 08:53:09;;;;;;;;;;;28.50;92.90;;;;;;4973401;28;20009;-68
2022/07/25 08:55:35;;;;;;;;;;;28.60;93.00;;;;;;4974032;28;20429;-68
2022/07/25 08:58:00;;;;;;;;;;;28.60;93.10;;;;;;4972643;28;20013;-68
2022/07/25 09:00:27;;;;;;;;;;;28.80;93.10;;;;;;4972366;28;19977;-70
2022/07/25 09:03:01;;;;;;;;;;;29.00;92.30;;;;;;4971745;28;19910;-72
2022/07/25 09:05:30;;;;;;;;;;;29.00;92.40;;;;;;4973699;28;19917;-74
2022/07/25 09:07:57;;;;;;;;;;;29.10;92.50;;;;;;4972724;28;19937;-71
2022/07/25 09:10:27;;;;;;;;;;;29.20;92.20;;;;;;4973098;28;19914;-70
2022/07/25 09:12:56;;;;;;;;;;;29.20;92.10;;;;;;4973329;28;19916;-70
2022/07/25 09:15:30;;;;;;;;;;;29.20;92.40;;;;;;4972862;28;19972;-70
2022/07/25 09:17:57;;;;;;;;;;;29.30;92.20;;;;;;4973872;28;20293;-69
2022/07/25 09:20:34;;;;;;;;;;;29.20;92.10;;;;;;4972723;28;19921;-70
2022/07/25 09:23:00;;;;;;;;;;;29.40;91.70;;;;;;4973124;28;19917;-70
2022/07/25 09:25:29;;;;;;;;;;;29.50;91.60;;;;;;4973438;28;19910;-69
2022/07/25 09:28:08;;;;;;;;;;;29.60;91.80;;;;;;4973200;28;19931;-73
2022/07/25 09:30:34;;;;;;;;;;;29.90;91.90;;;;;;4971736;28;20272;-73
2022/07/25 09:33:00;;;;;;;;;;;30.00;91.00;;;;;;4971811;28;20017;-73
2022/07/25 09:35:30;;;;;;;;;;;30.20;90.90;;;;;;4973389;28;19941;-73
2022/07/25 09:38:13;;;;;;;;;;;30.20;90.70;;;;;;4963081;28;19910;-72
2022/07/25 09:40:39;;;;;;;;;;;30.50;90.90;;;;;;4952226;28;19961;-73
2022/07/25 09:43:05;;;;;;;;;;;30.70;90.00;;;;;;4951964;28;19911;-73
2022/07/25 09:45:31;;;;;;;;;;;30.80;90.00;;;;;;4960249;28;20329;-73
2022/07/25 09:48:02;;;;;;;;;;;30.70;89.50;;;;;;4971842;28;20388;-73
2022/07/25 09:50:30;;;;;;;;;;;30.70;89.00;;;;;;4972633;28;19917;-73
2022/07/25 09:52:59;;;;;;;;;;;30.80;88.90;;;;;;4971346;28;19921;-73
2022/07/25 09:55:25;;;;;;;;;;;30.90;88.70;;;;;;4971601;28;20373;-73
2022/07/25 09:57:54;;;;;;;;;;;30.90;88.70;;;;;;4973116;28;20012;-73
2022/07/25 10:00:25;;;;;;;;;;;31.20;87.80;;;;;;4972242;28;20412;-73
2022/07/25 10:02:53;;;;;;;;;;;31.50;87.60;;;;;;4971435;28;19914;-73
2022/07/25 10:06:13;;;;;;;;;;;31.60;85.20;;;;;;4972823;28;20032;-73
2022/07/25 10:08:40;;;;;;;;;;;31.50;85.10;;;;;;4955808;28;19914;-73
2022/07/25 10:11:18;;;;;;;;;;;31.80;82.70;;;;;;4949102;28;19918;-73
2022/07/25 10:13:43;;;;;;;;;;;31.80;83.50;;;;;;4948195;28;19911;-73
2022/07/25 10:16:23;;;;;;;;;;;32.10;82.90;;;;;;4960627;28;19925;-73
2022/07/25 10:18:54;;;;;;;;;;;32.50;82.00;;;;;;4955070;28;20648;-73
2022/07/25 10:21:21;;;;;;;;;;;32.50;80.40;;;;;;4971165;28;19967;-73
2022/07/25 10:24:16;;;;;;;;;;;32.30;80.10;;;;;;4970783;28;19914;-73
2022/07/25 10:26:51;;;;;;;;;;;32.00;80.80;;;;;;4967811;28;20386;-73
2022/07/25 10:29:17;;;;;;;;;;;32.20;80.80;;;;;;4974313;28;19909;-73
2022/07/25 10:31:44;;;;;;;;;;;32.30;80.90;;;;;;4976241;28;20377;-73
2022/07/25 10:34:12;;;;;;;;;;;32.30;80.60;;;;;;4942848;28;20345;-73
2022/07/25 10:36:47;;;;;;;;;;;32.20;80.20;;;;;;4990887;28;19914;-73
2022/07/25 10:39:14;;;;;;;;;;;32.30;79.80;;;;;;4974692;28;20421;-73
2022/07/25 10:41:42;;;;;;;;;;;32.30;79.90;;;;;;4975319;28;19910;-73
2022/07/25 10:44:13;;;;;;;;;;;32.30;79.50;;;;;;4975916;28;19910;-74
2022/07/25 10:46:39;;;;;;;;;;;32.50;79.40;;;;;;4976116;28;19914;-73
2022/07/25 10:49:06;;;;;;;;;;;32.50;80.10;;;;;;4956117;28;19914;-72
2022/07/25 10:51:34;;;;;;;;;;;32.50;78.70;;;;;;4957004;29;19914;-72
2022/07/25 10:54:10;;;;;;;;;;;32.60;78.50;;;;;;4956060;28;19969;-72
2022/07/25 10:56:35;;;;;;;;;;;32.60;78.50;;;;;;4955457;29;19918;-73
2022/07/25 10:59:01;;;;;;;;;;;32.60;78.60;;;;;;4956437;29;19965;-73
2022/07/25 11:01:32;;;;;;;;;;;32.60;78.50;;;;;;4956335;29;19937;-73
2022/07/25 11:04:02;;;;;;;;;;;32.60;79.20;;;;;;4956200;28;19918;-72
2022/07/25 11:06:35;;;;;;;;;;;32.60;78.70;;;;;;4956495;29;19918;-73
2022/07/25 11:09:12;;;;;;;;;;;32.80;78.40;;;;;;4956177;29;19914;-73
2022/07/25 11:11:41;;;;;;;;;;;32.90;78.30;;;;;;4955397;29;19911;-72
2022/07/25 11:14:17;;;;;;;;;;;33.30;77.00;;;;;;4955835;28;19961;-72
2022/07/25 11:16:44;;;;;;;;;;;33.50;76.40;;;;;;4973639;28;19918;-72
2022/07/25 11:19:20;;;;;;;;;;;33.50;75.60;;;;;;4973799;28;20803;-73
2022/07/25 11:21:47;;;;;;;;;;;33.50;76.60;;;;;;4956492;29;19914;-74
2022/07/25 11:24:13;;;;;;;;;;;33.20;77.60;;;;;;4954532;29;20397;-73
2022/07/25 11:26:52;;;;;;;;;;;33.30;76.70;;;;;;4954991;28;19954;-73
2022/07/25 11:29:28;;;;;;;;;;;33.30;75.90;;;;;;4959742;28;19952;-74
2022/07/25 11:31:59;;;;;;;;;;;33.50;76.40;;;;;;4975276;28;20391;-73
2022/07/25 11:34:28;;;;;;;;;;;33.30;76.60;;;;;;4964704;28;20375;-72
2022/07/25 11:36:56;;;;;;;;;;;33.30;77.30;;;;;;4955722;28;19918;-73
2022/07/25 11:39:26;;;;;;;;;;;33.30;77.40;;;;;;4953122;28;19917;-73
2022/07/25 11:42:06;;;;;;;;;;;33.50;77.00;;;;;;4954762;29;20368;-74
2022/07/25 11:44:47;;;;;;;;;;;33.50;77.00;;;;;;4956125;28;19957;-72
2022/07/25 11:47:24;;;;;;;;;;;34.10;76.30;;;;;;4973820;28;19921;-73
2022/07/25 11:49:51;;;;;;;;;;;34.30;75.80;;;;;;4974490;28;20338;-72
2022/07/25 11:52:28;;;;;;;;;;;34.70;75.10;;;;;;4973709;28;19917;-75
2022/07/25 11:54:58;;;;;;;;;;;35.00;75.00;;;;;;4973423;28;19914;-75
2022/07/25 11:57:26;;;;;;;;;;;35.00;73.10;;;;;;4974983;28;19925;-74
2022/07/25 11:59:52;;;;;;;;;;;34.80;73.30;;;;;;4974345;28;20569;-73
2022/07/25 12:02:29;;;;;;;;;;;34.90;72.90;;;;;;4974292;28;19914;-73
2022/07/25 12:05:06;;;;;;;;;;;35.00;72.80;;;;;;4964945;28;19910;-75
2022/07/25 12:07:45;;;;;;;;;;;35.00;72.30;;;;;;4960032;28;19914;-73
2022/07/25 12:10:20;;;;;;;;;;;35.20;72.20;;;;;;4969239;28;20475;-75
2022/07/25 12:12:48;;;;;;;;;;;35.00;72.70;;;;;;4952675;28;20459;-74
2022/07/25 12:15:16;;;;;;;;;;;35.20;71.90;;;;;;4959137;28;20401;-74
2022/07/25 12:17:42;;;;;;;;;;;35.20;71.70;;;;;;4972676;28;19914;-74
2022/07/25 12:20:17;;;;;;;;;;;35.30;71.40;;;;;;4952876;28;20012;-75
2022/07/25 12:22:44;;;;;;;;;;;35.30;70.50;;;;;;4950692;28;19917;-72
2022/07/25 12:25:10;;;;;;;;;;;35.30;70.60;;;;;;4962970;28;19910;-72
2022/07/25 12:27:36;;;;;;;;;;;35.30;70.50;;;;;;4965074;28;20373;-73
2022/07/25 12:30:03;;;;;;;;;;;35.20;70.80;;;;;;4968428;28;20436;-74
2022/07/25 12:32:29;;;;;;;;;;;34.20;72.00;;;;;;4964525;28;19917;-74
2022/07/25 12:34:55;;;;;;;;;;;34.50;72.50;;;;;;4969559;28;19910;-75
2022/07/25 12:37:20;;;;;;;;;;;34.60;72.30;;;;;;4971049;28;19914;-75
2022/07/25 12:39:47;;;;;;;;;;;35.10;72.80;;;;;;4972722;28;19914;-75
2022/07/25 12:42:12;;;;;;;;;;;35.50;71.40;;;;;;4966231;28;19994;-74
2022/07/25 12:44:38;;;;;;;;;;;35.80;72.50;;;;;;4970237;28;19914;-74
2022/07/25 12:47:04;;;;;;;;;;;35.30;70.90;;;;;;4951871;28;19962;-74
2022/07/25 12:49:29;;;;;;;;;;;35.40;70.90;;;;;;4952695;28;19910;-75
2022/07/25 12:51:55;;;;;;;;;;;35.40;71.50;;;;;;4952980;28;19917;-75
2022/07/25 12:54:20;;;;;;;;;;;35.50;71.60;;;;;;4954188;28;19993;-75
2022/07/25 12:56:46;;;;;;;;;;;35.50;70.80;;;;;;4954380;29;19921;-74
2022/07/25 12:59:12;;;;;;;;;;;35.10;70.80;;;;;;4953890;29;19950;-75
2022/07/25 13:01:37;;;;;;;;;;;35.40;71.40;;;;;;4954411;29;19910;-74
2022/07/25 13:04:06;;;;;;;;;;;35.10;72.00;;;;;;4954070;28;19910;-75
2022/07/25 13:06:32;;;;;;;;;;;34.80;71.20;;;;;;4954368;29;19973;-74
2022/07/25 13:08:58;;;;;;;;;;;34.60;71.50;;;;;;4954008;28;19968;-75
2022/07/25 13:11:24;;;;;;;;;;;34.60;66.50;;;;;;4954375;29;20025;-74
2022/07/25 13:13:49;;;;;;;;;;;34.80;66.00;;;;;;4952775;28;20030;-75
2022/07/25 13:16:15;;;;;;;;;;;34.80;65.70;;;;;;4968117;28;19914;-75
2022/07/25 13:18:40;;;;;;;;;;;34.70;65.60;;;;;;4973136;28;19986;-72
2022/07/25 13:21:06;;;;;;;;;;;34.50;65.30;;;;;;4973541;28;20124;-72
2022/07/25 13:23:32;;;;;;;;;;;34.40;65.20;;;;;;4972791;28;20342;-72
2022/07/25 13:25:59;;;;;;;;;;;34.30;65.70;;;;;;4973193;28;20029;-71
2022/07/25 13:28:24;;;;;;;;;;;34.10;65.60;;;;;;4971915;28;19914;-71
2022/07/25 13:30:50;;;;;;;;;;;34.10;65.70;;;;;;4952051;28;19989;-72
2022/07/25 13:33:16;;;;;;;;;;;34.10;65.90;;;;;;4968269;28;19914;-73
2022/07/25 13:35:44;;;;;;;;;;;34.20;65.60;;;;;;4953954;28;20358;-75
2022/07/25 13:38:10;;;;;;;;;;;34.10;65.50;;;;;;4953676;28;19910;-75
2022/07/25 13:40:40;;;;;;;;;;;34.10;65.70;;;;;;4953507;29;19916;-75
2022/07/25 13:43:10;;;;;;;;;;;33.90;66.00;;;;;;4953544;28;19920;-75
2022/07/25 13:45:36;;;;;;;;;;;33.90;66.50;;;;;;4961091;28;19917;-75
2022/07/25 13:48:05;;;;;;;;;;;34.00;66.40;;;;;;4971978;28;20281;-76
2022/07/25 13:50:34;;;;;;;;;;;34.00;66.60;;;;;;4955799;28;20000;-74
2022/07/25 13:53:00;;;;;;;;;;;33.90;66.70;;;;;;4971293;28;19913;-74
2022/07/25 13:55:27;;;;;;;;;;;33.90;67.00;;;;;;4972905;28;20425;-75
2022/07/25 13:57:53;;;;;;;;;;;33.80;67.20;;;;;;4972932;28;19921;-75
2022/07/25 14:00:19;;;;;;;;;;;33.70;67.60;;;;;;4954998;28;19914;-70
2022/07/25 14:02:45;;;;;;;;;;;33.60;68.20;;;;;;4971441;28;19914;-76
2022/07/25 14:05:11;;;;;;;;;;;33.50;68.70;;;;;;4951023;28;19954;-77
2022/07/25 14:07:37;;;;;;;;;;;33.30;69.10;;;;;;4953310;29;19910;-74
2022/07/25 14:10:06;;;;;;;;;;;33.20;69.80;;;;;;4967725;28;19958;-77
2022/07/25 14:12:32;;;;;;;;;;;33.30;71.40;;;;;;4967993;28;20342;-72
2022/07/25 14:14:58;;;;;;;;;;;32.60;79.70;;;;;;4957085;28;20329;-74
2022/07/25 14:17:23;;;;;;;;;;;30.80;85.40;;;;;;4971217;28;19914;-77
2022/07/25 14:19:49;;;;;;;;;;;29.30;87.20;;;;;;4970962;28;20003;-75